sensor_id;sensor_type;location;lat;lon;timestamp;pressure;altitude;pressure_sealevel;temperature;humidity
11347;BME280;5728;42.722;23.258;2022-10-18T00:01:00;96287.38;;;5.95;82.49
11347;BME280;5728;42.722;23.258;2022-10-18T00:03:27;96287.16;;;5.86;83.38
11347;BME280;5728;42.722;23.258;2022-10-18T00:05:54;96286.81;;;5.73;83.36
11347;BME280;5728;42.722;23.258;2022-10-18T00:08:23;96290.09;;;5.69;84.02
11347;BME280;5728;42.722;23.258;2022-10-18T00:10:50;96276.16;;;5.91;82.90
11347;BME280;5728;42.722;23.258;2022-10-18T00:13:16;96275.41;;;5.95;83.28
11347;BME280;5728;42.722;23.258;2022-10-18T00:15:48;96269.94;;;6.16;83.09
11347;BME280;5728;42.722;23.258;2022-10-18T00:18:15;96274.81;;;6.05;83.72
11347;BME280;5728;42.722;23.258;2022-10-18T00:20:41;96268.25;;;6.18;82.61
11347;BME280;5728;42.722;23.258;2022-10-18T00:23:08;96260.63;;;6.21;83.62
11347;BME280;5728;42.722;23.258;2022-10-18T00:25:36;96257.69;;;6.07;83.14
11347;BME280;5728;42.722;23.258;2022-10-18T00:28:03;96252.66;;;5.80;83.48
11347;BME280;5728;42.722;23.258;2022-10-18T00:30:30;96251.00;;;5.82;84.65
11347;BME280;5728;42.722;23.258;2022-10-18T00:32:57;96256.94;;;5.80;83.27
11347;BME280;5728;42.722;23.258;2022-10-18T00:35:24;96257.84;;;6.13;83.75
11347;BME280;5728;42.722;23.258;2022-10-18T00:37:50;96254.72;;;5.92;82.81
11347;BME280;5728;42.722;23.258;2022-10-18T00:40:17;96244.47;;;5.94;82.44
11347;BME280;5728;42.722;23.258;2022-10-18T00:42:45;96252.06;;;5.89;83.24
11347;BME280;5728;42.722;23.258;2022-10-18T00:45:16;96242.28;;;5.77;83.31
11347;BME280;5728;42.722;23.258;2022-10-18T00:47:47;96244.78;;;5.74;83.44
11347;BME280;5728;42.722;23.258;2022-10-18T00:50:14;96238.75;;;5.74;83.51
11347;BME280;5728;42.722;23.258;2022-10-18T00:52:43;96244.69;;;5.71;84.42
11347;BME280;5728;42.722;23.258;2022-10-18T00:55:12;96236.19;;;5.74;83.86
11347;BME280;5728;42.722;23.258;2022-10-18T00:57:41;96243.34;;;5.53;84.38
11347;BME280;5728;42.722;23.258;2022-10-18T01:00:11;96239.72;;;5.46;85.12
11347;BME280;5728;42.722;23.258;2022-10-18T01:02:40;96236.56;;;5.56;85.59
11347;BME280;5728;42.722;23.258;2022-10-18T01:05:09;96237.09;;;5.43;85.37
11347;BME280;5728;42.722;23.258;2022-10-18T01:08:03;96239.28;;;5.31;85.67
11347;BME280;5728;42.722;23.258;2022-10-18T01:10:40;96220.47;;;5.32;85.84
11347;BME280;5728;42.722;23.258;2022-10-18T01:13:25;96222.97;;;5.60;85.52
11347;BME280;5728;42.722;23.258;2022-10-18T01:15:59;96225.22;;;5.48;85.01
11347;BME280;5728;42.722;23.258;2022-10-18T01:18:32;96223.50;;;5.81;84.52
11347;BME280;5728;42.722;23.258;2022-10-18T01:21:12;96221.13;;;5.86;85.39
11347;BME280;5728;42.722;23.258;2022-10-18T01:24:12;96220.19;;;6.18;84.49
11347;BME280;5728;42.722;23.258;2022-10-18T01:26:54;96225.22;;;6.50;82.56
11347;BME280;5728;42.722;23.258;2022-10-18T01:29:31;96219.00;;;6.77;80.02
11347;BME280;5728;42.722;23.258;2022-10-18T01:32:09;96217.84;;;7.03;81.33
11347;BME280;5728;42.722;23.258;2022-10-18T01:34:40;96222.84;;;6.94;79.60
11347;BME280;5728;42.722;23.258;2022-10-18T01:37:13;96218.78;;;5.97;81.40
11347;BME280;5728;42.722;23.258;2022-10-18T01:39:44;96214.94;;;5.48;83.87
11347;BME280;5728;42.722;23.258;2022-10-18T01:42:16;96213.34;;;5.22;86.09
11347;BME280;5728;42.722;23.258;2022-10-18T01:44:44;96207.22;;;5.48;86.14
11347;BME280;5728;42.722;23.258;2022-10-18T01:47:14;96209.78;;;5.48;86.25
11347;BME280;5728;42.722;23.258;2022-10-18T01:49:42;96209.25;;;5.61;86.10
11347;BME280;5728;42.722;23.258;2022-10-18T01:52:11;96210.00;;;5.56;85.34
11347;BME280;5728;42.722;23.258;2022-10-18T01:54:41;96202.63;;;5.07;86.39
11347;BME280;5728;42.722;23.258;2022-10-18T01:57:13;96209.75;;;5.17;87.91
11347;BME280;5728;42.722;23.258;2022-10-18T01:59:49;96206.59;;;5.26;87.49
11347;BME280;5728;42.722;23.258;2022-10-18T02:02:30;96205.78;;;5.59;86.13
11347;BME280;5728;42.722;23.258;2022-10-18T02:05:11;96203.03;;;5.85;85.31
11347;BME280;5728;42.722;23.258;2022-10-18T02:07:43;96199.59;;;5.53;85.24
11347;BME280;5728;42.722;23.258;2022-10-18T02:10:17;96191.25;;;5.93;88.57
11347;BME280;5728;42.722;23.258;2022-10-18T02:12:47;96204.09;;;5.93;88.79
11347;BME280;5728;42.722;23.258;2022-10-18T02:15:17;96198.25;;;5.98;86.71
11347;BME280;5728;42.722;23.258;2022-10-18T02:17:46;96194.53;;;6.21;84.17
11347;BME280;5728;42.722;23.258;2022-10-18T02:20:18;96204.66;;;6.51;82.44
11347;BME280;5728;42.722;23.258;2022-10-18T02:22:45;96188.25;;;6.48;81.00
11347;BME280;5728;42.722;23.258;2022-10-18T02:25:17;96195.25;;;6.16;83.30
11347;BME280;5728;42.722;23.258;2022-10-18T02:27:46;96202.38;;;5.60;84.94
11347;BME280;5728;42.722;23.258;2022-10-18T02:30:13;96190.50;;;5.65;85.42
11347;BME280;5728;42.722;23.258;2022-10-18T02:32:43;96203.50;;;6.03;84.31
11347;BME280;5728;42.722;23.258;2022-10-18T02:35:17;96195.63;;;6.31;82.18
11347;BME280;5728;42.722;23.258;2022-10-18T02:37:47;96198.63;;;6.49;81.76
11347;BME280;5728;42.722;23.258;2022-10-18T02:40:15;96200.16;;;6.42;82.08
11347;BME280;5728;42.722;23.258;2022-10-18T02:42:45;96200.56;;;6.59;81.04
11347;BME280;5728;42.722;23.258;2022-10-18T02:45:13;96199.22;;;6.76;80.11
11347;BME280;5728;42.722;23.258;2022-10-18T02:47:40;96194.81;;;6.72;80.46
11347;BME280;5728;42.722;23.258;2022-10-18T02:50:08;96195.75;;;6.74;82.19
11347;BME280;5728;42.722;23.258;2022-10-18T02:52:36;96199.25;;;6.39;83.75
11347;BME280;5728;42.722;23.258;2022-10-18T02:55:04;96205.63;;;6.19;84.00
11347;BME280;5728;42.722;23.258;2022-10-18T02:57:30;96202.81;;;5.77;84.06
11347;BME280;5728;42.722;23.258;2022-10-18T02:59:57;96204.44;;;5.73;84.21
11347;BME280;5728;42.722;23.258;2022-10-18T03:02:24;96204.94;;;5.92;85.61
11347;BME280;5728;42.722;23.258;2022-10-18T03:04:51;96200.75;;;5.97;85.10
11347;BME280;5728;42.722;23.258;2022-10-18T03:07:17;96202.91;;;6.14;86.27
11347;BME280;5728;42.722;23.258;2022-10-18T03:09:46;96203.00;;;6.17;85.53
11347;BME280;5728;42.722;23.258;2022-10-18T03:12:12;96197.41;;;6.35;82.55
11347;BME280;5728;42.722;23.258;2022-10-18T03:14:39;96197.41;;;6.35;81.61
11347;BME280;5728;42.722;23.258;2022-10-18T03:17:06;96198.31;;;5.68;81.87
11347;BME280;5728;42.722;23.258;2022-10-18T03:19:33;96189.63;;;5.32;85.35
11347;BME280;5728;42.722;23.258;2022-10-18T03:21:59;96192.00;;;4.95;85.42
11347;BME280;5728;42.722;23.258;2022-10-18T03:24:26;96201.59;;;5.00;87.14
11347;BME280;5728;42.722;23.258;2022-10-18T03:26:54;96195.66;;;4.73;87.70
11347;BME280;5728;42.722;23.258;2022-10-18T03:29:21;96196.47;;;4.72;88.69
11347;BME280;5728;42.722;23.258;2022-10-18T03:31:48;96197.75;;;4.30;89.48
11347;BME280;5728;42.722;23.258;2022-10-18T03:34:14;96194.34;;;4.04;90.86
11347;BME280;5728;42.722;23.258;2022-10-18T03:36:42;96190.84;;;4.56;90.99
11347;BME280;5728;42.722;23.258;2022-10-18T03:39:10;96199.22;;;5.08;88.01
11347;BME280;5728;42.722;23.258;2022-10-18T03:41:37;96199.88;;;4.43;88.78
11347;BME280;5728;42.722;23.258;2022-10-18T03:44:05;96201.25;;;4.88;88.39
11347;BME280;5728;42.722;23.258;2022-10-18T03:46:32;96201.66;;;4.74;88.90
11347;BME280;5728;42.722;23.258;2022-10-18T03:48:59;96196.03;;;4.87;88.40
11347;BME280;5728;42.722;23.258;2022-10-18T03:51:25;96207.41;;;4.38;89.02
11347;BME280;5728;42.722;23.258;2022-10-18T03:53:52;96218.31;;;4.31;90.70
11347;BME280;5728;42.722;23.258;2022-10-18T03:56:19;96216.34;;;4.49;89.73
11347;BME280;5728;42.722;23.258;2022-10-18T03:58:45;96213.47;;;4.69;89.84
11347;BME280;5728;42.722;23.258;2022-10-18T04:01:13;96216.81;;;4.94;88.86
11347;BME280;5728;42.722;23.258;2022-10-18T04:03:40;96213.25;;;5.19;88.01
11347;BME280;5728;42.722;23.258;2022-10-18T04:06:07;96211.31;;;5.42;86.32
11347;BME280;5728;42.722;23.258;2022-10-18T04:08:34;96210.78;;;5.53;86.48
11347;BME280;5728;42.722;23.258;2022-10-18T04:11:04;96207.75;;;5.69;86.24
11347;BME280;5728;42.722;23.258;2022-10-18T04:13:32;96208.06;;;5.81;87.37
11347;BME280;5728;42.722;23.258;2022-10-18T04:15:59;96204.88;;;5.89;85.60
11347;BME280;5728;42.722;23.258;2022-10-18T04:18:27;96218.00;;;5.99;84.52
11347;BME280;5728;42.722;23.258;2022-10-18T04:20:54;96214.63;;;6.02;83.60
11347;BME280;5728;42.722;23.258;2022-10-18T04:23:21;96203.06;;;6.19;82.39
11347;BME280;5728;42.722;23.258;2022-10-18T04:25:47;96212.50;;;6.20;82.57
11347;BME280;5728;42.722;23.258;2022-10-18T04:28:14;96213.47;;;6.25;82.46
11347;BME280;5728;42.722;23.258;2022-10-18T04:30:41;96206.56;;;6.22;82.36
11347;BME280;5728;42.722;23.258;2022-10-18T04:33:08;96203.59;;;6.06;81.61
11347;BME280;5728;42.722;23.258;2022-10-18T04:35:36;96194.28;;;6.11;81.28
11347;BME280;5728;42.722;23.258;2022-10-18T04:38:02;96207.97;;;6.10;81.19
11347;BME280;5728;42.722;23.258;2022-10-18T04:40:29;96204.66;;;6.14;80.69
11347;BME280;5728;42.722;23.258;2022-10-18T04:42:56;96209.75;;;6.12;81.40
11347;BME280;5728;42.722;23.258;2022-10-18T04:45:23;96203.09;;;6.22;81.33
11347;BME280;5728;42.722;23.258;2022-10-18T04:47:50;96196.22;;;6.21;80.45
11347;BME280;5728;42.722;23.258;2022-10-18T04:50:18;96195.28;;;6.17;80.69
11347;BME280;5728;42.722;23.258;2022-10-18T04:52:46;96199.97;;;6.33;79.57
11347;BME280;5728;42.722;23.258;2022-10-18T04:55:13;96195.44;;;6.25;79.79
11347;BME280;5728;42.722;23.258;2022-10-18T04:57:40;96187.09;;;6.35;79.88
11347;BME280;5728;42.722;23.258;2022-10-18T05:00:07;96186.66;;;5.82;81.64
11347;BME280;5728;42.722;23.258;2022-10-18T05:02:34;96190.66;;;5.71;83.88
11347;BME280;5728;42.722;23.258;2022-10-18T05:05:01;96190.59;;;5.68;84.53
11347;BME280;5728;42.722;23.258;2022-10-18T05:07:28;96188.03;;;5.37;84.40
11347;BME280;5728;42.722;23.258;2022-10-18T05:09:56;96193.88;;;5.32;85.34
11347;BME280;5728;42.722;23.258;2022-10-18T05:12:22;96182.41;;;5.52;84.75
11347;BME280;5728;42.722;23.258;2022-10-18T05:14:49;96189.53;;;4.98;85.20
11347;BME280;5728;42.722;23.258;2022-10-18T05:17:16;96190.78;;;4.82;86.53
11347;BME280;5728;42.722;23.258;2022-10-18T05:19:43;96193.47;;;4.87;87.78
11347;BME280;5728;42.722;23.258;2022-10-18T05:22:09;96188.44;;;5.21;86.85
11347;BME280;5728;42.722;23.258;2022-10-18T05:24:36;96190.44;;;5.62;84.97
11347;BME280;5728;42.722;23.258;2022-10-18T05:27:04;96187.59;;;5.85;83.71
11347;BME280;5728;42.722;23.258;2022-10-18T05:29:31;96188.13;;;6.06;82.44
11347;BME280;5728;42.722;23.258;2022-10-18T05:31:58;96190.91;;;6.15;81.81
11347;BME280;5728;42.722;23.258;2022-10-18T05:34:24;96199.59;;;6.18;82.41
11347;BME280;5728;42.722;23.258;2022-10-18T05:36:51;96192.63;;;6.14;82.52
11347;BME280;5728;42.722;23.258;2022-10-18T05:39:18;96199.16;;;6.36;81.84
11347;BME280;5728;42.722;23.258;2022-10-18T05:41:45;96196.66;;;6.39;80.69
11347;BME280;5728;42.722;23.258;2022-10-18T05:44:13;96194.44;;;6.54;79.39
11347;BME280;5728;42.722;23.258;2022-10-18T05:46:40;96196.03;;;6.49;80.31
11347;BME280;5728;42.722;23.258;2022-10-18T05:49:06;96208.34;;;6.62;80.81
11347;BME280;5728;42.722;23.258;2022-10-18T05:51:33;96205.47;;;6.87;78.59
11347;BME280;5728;42.722;23.258;2022-10-18T05:54:00;96197.13;;;6.99;78.31
11347;BME280;5728;42.722;23.258;2022-10-18T05:56:27;96195.78;;;7.18;77.30
11347;BME280;5728;42.722;23.258;2022-10-18T05:58:53;96194.06;;;7.17;77.46
11347;BME280;5728;42.722;23.258;2022-10-18T06:01:21;96196.28;;;7.42;78.02
11347;BME280;5728;42.722;23.258;2022-10-18T06:03:49;96200.56;;;7.41;77.23
11347;BME280;5728;42.722;23.258;2022-10-18T06:06:16;96197.75;;;7.74;75.72
11347;BME280;5728;42.722;23.258;2022-10-18T06:08:43;96207.69;;;7.99;73.86
11347;BME280;5728;42.722;23.258;2022-10-18T06:11:11;96198.28;;;8.03;73.74
11347;BME280;5728;42.722;23.258;2022-10-18T06:13:39;96200.25;;;8.19;72.67
11347;BME280;5728;42.722;23.258;2022-10-18T06:16:08;96202.41;;;8.43;72.06
11347;BME280;5728;42.722;23.258;2022-10-18T06:18:36;96200.22;;;8.68;70.79
11347;BME280;5728;42.722;23.258;2022-10-18T06:21:04;96197.81;;;8.80;71.24
11347;BME280;5728;42.722;23.258;2022-10-18T06:23:31;96192.78;;;8.92;69.72
11347;BME280;5728;42.722;23.258;2022-10-18T06:25:58;96193.53;;;8.84;71.03
11347;BME280;5728;42.722;23.258;2022-10-18T06:28:26;96191.16;;;8.99;71.63
11347;BME280;5728;42.722;23.258;2022-10-18T06:30:54;96194.06;;;9.23;69.76
11347;BME280;5728;42.722;23.258;2022-10-18T06:33:20;96196.19;;;9.57;69.00
11347;BME280;5728;42.722;23.258;2022-10-18T06:35:56;96198.06;;;9.69;68.88
11347;BME280;5728;42.722;23.258;2022-10-18T06:38:24;96200.69;;;9.74;69.54
11347;BME280;5728;42.722;23.258;2022-10-18T06:40:50;96203.31;;;9.77;69.06
11347;BME280;5728;42.722;23.258;2022-10-18T06:43:17;96202.50;;;9.82;68.10
11347;BME280;5728;42.722;23.258;2022-10-18T06:45:44;96200.06;;;9.96;67.21
11347;BME280;5728;42.722;23.258;2022-10-18T06:48:11;96196.09;;;10.30;66.76
11347;BME280;5728;42.722;23.258;2022-10-18T06:50:38;96197.13;;;10.54;65.23
11347;BME280;5728;42.722;23.258;2022-10-18T06:53:06;96198.16;;;10.74;65.73
11347;BME280;5728;42.722;23.258;2022-10-18T06:55:33;96188.59;;;10.70;66.46
11347;BME280;5728;42.722;23.258;2022-10-18T06:58:00;96204.31;;;10.98;66.46
11347;BME280;5728;42.722;23.258;2022-10-18T07:00:27;96198.31;;;11.08;64.59
11347;BME280;5728;42.722;23.258;2022-10-18T07:02:54;96195.94;;;11.47;63.82
11347;BME280;5728;42.722;23.258;2022-10-18T07:05:21;96201.03;;;11.29;64.54
11347;BME280;5728;42.722;23.258;2022-10-18T07:07:48;96191.72;;;11.79;62.80
11347;BME280;5728;42.722;23.258;2022-10-18T07:10:17;96201.16;;;11.50;63.29
11347;BME280;5728;42.722;23.258;2022-10-18T07:12:44;96194.13;;;11.34;65.64
11347;BME280;5728;42.722;23.258;2022-10-18T07:15:11;96187.38;;;11.78;65.26
11347;BME280;5728;42.722;23.258;2022-10-18T07:17:38;96191.78;;;11.97;62.30
11347;BME280;5728;42.722;23.258;2022-10-18T07:20:06;96187.47;;;12.02;66.32
11347;BME280;5728;42.722;23.258;2022-10-18T07:22:33;96187.50;;;12.36;62.71
11347;BME280;5728;42.722;23.258;2022-10-18T07:25:02;96182.25;;;12.39;61.26
11347;BME280;5728;42.722;23.258;2022-10-18T07:27:34;96181.41;;;12.37;62.35
11347;BME280;5728;42.722;23.258;2022-10-18T07:30:03;96182.25;;;12.19;60.63
11347;BME280;5728;42.722;23.258;2022-10-18T07:32:31;96171.88;;;12.33;64.30
11347;BME280;5728;42.722;23.258;2022-10-18T07:34:57;96176.22;;;12.40;62.65
11347;BME280;5728;42.722;23.258;2022-10-18T07:37:24;96177.94;;;12.39;61.92
11347;BME280;5728;42.722;23.258;2022-10-18T07:39:51;96172.75;;;12.18;62.76
11347;BME280;5728;42.722;23.258;2022-10-18T07:42:18;96166.63;;;12.75;60.55
11347;BME280;5728;42.722;23.258;2022-10-18T07:44:46;96169.19;;;13.02;61.45
11347;BME280;5728;42.722;23.258;2022-10-18T07:47:13;96157.03;;;13.07;59.78
11347;BME280;5728;42.722;23.258;2022-10-18T07:49:39;96164.81;;;13.22;59.08
11347;BME280;5728;42.722;23.258;2022-10-18T07:52:06;96157.69;;;13.62;56.78
11347;BME280;5728;42.722;23.258;2022-10-18T07:54:33;96162.63;;;14.07;57.93
11347;BME280;5728;42.722;23.258;2022-10-18T07:57:00;96163.75;;;13.66;56.10
11347;BME280;5728;42.722;23.258;2022-10-18T07:59:26;96157.63;;;13.76;56.17
11347;BME280;5728;42.722;23.258;2022-10-18T08:01:54;96149.41;;;14.39;56.92
11347;BME280;5728;42.722;23.258;2022-10-18T08:04:21;96149.47;;;14.32;56.42
11347;BME280;5728;42.722;23.258;2022-10-18T08:06:48;96147.88;;;14.05;58.27
11347;BME280;5728;42.722;23.258;2022-10-18T08:09:15;96144.94;;;14.50;56.03
11347;BME280;5728;42.722;23.258;2022-10-18T08:11:42;96143.91;;;14.73;53.65
11347;BME280;5728;42.722;23.258;2022-10-18T08:14:09;96143.66;;;14.95;53.31
11347;BME280;5728;42.722;23.258;2022-10-18T08:16:35;96128.09;;;14.85;52.70
11347;BME280;5728;42.722;23.258;2022-10-18T08:19:04;96131.19;;;15.20;51.97
11347;BME280;5728;42.722;23.258;2022-10-18T08:21:30;96126.44;;;15.54;51.09
11347;BME280;5728;42.722;23.258;2022-10-18T08:23:57;96128.16;;;15.53;54.96
11347;BME280;5728;42.722;23.258;2022-10-18T08:26:24;96130.38;;;15.15;51.24
11347;BME280;5728;42.722;23.258;2022-10-18T08:28:51;96122.72;;;15.71;50.66
11347;BME280;5728;42.722;23.258;2022-10-18T08:31:17;96122.47;;;14.37;52.46
11347;BME280;5728;42.722;23.258;2022-10-18T08:33:45;96118.09;;;14.39;53.96
11347;BME280;5728;42.722;23.258;2022-10-18T08:36:15;96099.84;;;14.36;53.66
11347;BME280;5728;42.722;23.258;2022-10-18T08:38:42;96097.94;;;15.31;51.38
11347;BME280;5728;42.722;23.258;2022-10-18T08:41:22;96089.19;;;15.35;51.45
11347;BME280;5728;42.722;23.258;2022-10-18T08:43:57;96086.25;;;15.61;50.03
11347;BME280;5728;42.722;23.258;2022-10-18T08:46:28;96086.56;;;15.35;51.32
11347;BME280;5728;42.722;23.258;2022-10-18T08:48:57;96074.94;;;16.17;49.38
11347;BME280;5728;42.722;23.258;2022-10-18T08:51:30;96074.31;;;16.54;49.23
11347;BME280;5728;42.722;23.258;2022-10-18T08:54:03;96079.13;;;16.77;47.32
11347;BME280;5728;42.722;23.258;2022-10-18T08:56:32;96074.16;;;16.64;49.71
11347;BME280;5728;42.722;23.258;2022-10-18T08:59:00;96076.78;;;16.09;48.37
11347;BME280;5728;42.722;23.258;2022-10-18T09:01:35;96069.00;;;17.05;51.21
11347;BME280;5728;42.722;23.258;2022-10-18T09:04:22;96065.09;;;17.67;46.61
11347;BME280;5728;42.722;23.258;2022-10-18T09:07:04;96069.03;;;17.86;44.19
11347;BME280;5728;42.722;23.258;2022-10-18T09:09:38;96070.06;;;18.17;43.06
11347;BME280;5728;42.722;23.258;2022-10-18T09:12:29;96063.47;;;18.70;43.35
11347;BME280;5728;42.722;23.258;2022-10-18T09:15:05;96066.88;;;18.38;43.55
11347;BME280;5728;42.722;23.258;2022-10-18T09:17:45;96064.94;;;17.73;43.44
11347;BME280;5728;42.722;23.258;2022-10-18T09:20:21;96056.63;;;18.65;42.94
11347;BME280;5728;42.722;23.258;2022-10-18T09:22:55;96057.38;;;19.31;41.36
11347;BME280;5728;42.722;23.258;2022-10-18T09:25:26;96052.41;;;19.51;40.57
11347;BME280;5728;42.722;23.258;2022-10-18T09:28:12;96054.25;;;19.79;39.66
11347;BME280;5728;42.722;23.258;2022-10-18T09:30:46;96040.38;;;19.73;41.14
11347;BME280;5728;42.722;23.258;2022-10-18T09:33:23;96047.41;;;19.13;40.27
11347;BME280;5728;42.722;23.258;2022-10-18T09:35:54;96041.38;;;19.40;41.06
11347;BME280;5728;42.722;23.258;2022-10-18T09:38:27;96043.84;;;20.02;40.01
11347;BME280;5728;42.722;23.258;2022-10-18T09:40:59;96050.19;;;20.50;40.12
11347;BME280;5728;42.722;23.258;2022-10-18T09:43:37;96046.22;;;20.63;38.80
11347;BME280;5728;42.722;23.258;2022-10-18T09:46:06;96033.53;;;20.99;37.76
11347;BME280;5728;42.722;23.258;2022-10-18T09:48:40;96037.72;;;21.05;37.41
11347;BME280;5728;42.722;23.258;2022-10-18T09:51:11;96028.84;;;21.32;36.70
11347;BME280;5728;42.722;23.258;2022-10-18T09:53:52;96028.38;;;21.67;36.93
11347;BME280;5728;42.722;23.258;2022-10-18T09:56:23;96023.22;;;21.87;35.67
11347;BME280;5728;42.722;23.258;2022-10-18T09:58:51;96028.56;;;21.84;35.64
11347;BME280;5728;42.722;23.258;2022-10-18T10:01:20;96022.72;;;21.76;34.84
11347;BME280;5728;42.722;23.258;2022-10-18T10:03:50;96011.22;;;22.00;34.85
11347;BME280;5728;42.722;23.258;2022-10-18T10:06:23;96003.25;;;22.02;35.03
11347;BME280;5728;42.722;23.258;2022-10-18T10:08:57;96002.75;;;21.92;34.65
11347;BME280;5728;42.722;23.258;2022-10-18T10:11:33;95994.38;;;22.24;38.40
11347;BME280;5728;42.722;23.258;2022-10-18T10:14:07;95995.38;;;22.00;34.93
11347;BME280;5728;42.722;23.258;2022-10-18T10:16:42;95984.63;;;22.47;34.97
11347;BME280;5728;42.722;23.258;2022-10-18T10:19:16;95974.97;;;22.46;34.07
11347;BME280;5728;42.722;23.258;2022-10-18T10:21:47;95970.53;;;21.38;35.79
11347;BME280;5728;42.722;23.258;2022-10-18T10:24:22;95964.94;;;21.47;35.28
11347;BME280;5728;42.722;23.258;2022-10-18T10:26:58;95964.66;;;21.98;34.74
11347;BME280;5728;42.722;23.258;2022-10-18T10:32:30;95951.16;;;22.46;33.23
11347;BME280;5728;42.722;23.258;2022-10-18T10:34:57;95944.09;;;20.93;35.53
11347;BME280;5728;42.722;23.258;2022-10-18T10:37:30;95946.50;;;20.51;36.35
11347;BME280;5728;42.722;23.258;2022-10-18T10:40:09;95936.88;;;21.66;35.14
11347;BME280;5728;42.722;23.258;2022-10-18T10:42:54;95918.19;;;21.27;34.77
11347;BME280;5728;42.722;23.258;2022-10-18T10:45:22;95912.91;;;21.27;34.82
11347;BME280;5728;42.722;23.258;2022-10-18T10:47:52;95917.69;;;21.83;33.83
11347;BME280;5728;42.722;23.258;2022-10-18T10:50:23;95910.47;;;22.09;37.64
11347;BME280;5728;42.722;23.258;2022-10-18T10:52:51;95904.44;;;22.86;33.01
11347;BME280;5728;42.722;23.258;2022-10-18T10:55:22;95904.31;;;23.27;31.80
11347;BME280;5728;42.722;23.258;2022-10-18T10:57:53;95898.75;;;23.14;31.25
11347;BME280;5728;42.722;23.258;2022-10-18T11:00:36;95899.88;;;23.65;31.20
11347;BME280;5728;42.722;23.258;2022-10-18T11:03:05;95889.03;;;24.05;30.81
11347;BME280;5728;42.722;23.258;2022-10-18T11:05:41;95888.13;;;24.06;29.89
11347;BME280;5728;42.722;23.258;2022-10-18T11:08:12;95886.78;;;23.62;30.12
11347;BME280;5728;42.722;23.258;2022-10-18T11:10:49;95889.69;;;24.27;29.16
11347;BME280;5728;42.722;23.258;2022-10-18T11:13:24;95876.78;;;23.85;30.15
11347;BME280;5728;42.722;23.258;2022-10-18T11:15:56;95871.31;;;24.41;29.33
11347;BME280;5728;42.722;23.258;2022-10-18T11:18:28;95866.25;;;25.66;26.94
11347;BME280;5728;42.722;23.258;2022-10-18T11:21:01;95866.88;;;26.01;26.06
11347;BME280;5728;42.722;23.258;2022-10-18T11:23:33;95854.09;;;26.37;25.45
11347;BME280;5728;42.722;23.258;2022-10-18T11:26:30;95853.38;;;25.90;24.64
11347;BME280;5728;42.722;23.258;2022-10-18T11:29:24;95843.13;;;25.98;23.99
11347;BME280;5728;42.722;23.258;2022-10-18T11:32:01;95838.22;;;26.06;24.57
11347;BME280;5728;42.722;23.258;2022-10-18T11:34:47;95829.28;;;26.23;23.17
11347;BME280;5728;42.722;23.258;2022-10-18T11:37:31;95831.78;;;26.40;22.81
11347;BME280;5728;42.722;23.258;2022-10-18T11:40:13;95820.44;;;26.22;22.43
11347;BME280;5728;42.722;23.258;2022-10-18T11:42:48;95820.47;;;26.36;22.18
11347;BME280;5728;42.722;23.258;2022-10-18T11:45:27;95826.97;;;26.60;21.49
11347;BME280;5728;42.722;23.258;2022-10-18T11:48:01;95821.69;;;27.30;21.36
11347;BME280;5728;42.722;23.258;2022-10-18T11:50:33;95808.41;;;26.45;22.29
11347;BME280;5728;42.722;23.258;2022-10-18T11:53:11;95795.28;;;26.56;22.01
11347;BME280;5728;42.722;23.258;2022-10-18T11:55:47;95807.88;;;26.82;20.74
11347;BME280;5728;42.722;23.258;2022-10-18T11:58:33;95801.78;;;27.08;21.24
11347;BME280;5728;42.722;23.258;2022-10-18T12:01:12;95791.84;;;27.39;20.17
11347;BME280;5728;42.722;23.258;2022-10-18T12:03:51;95788.00;;;27.02;20.84
11347;BME280;5728;42.722;23.258;2022-10-18T12:06:23;95788.22;;;27.40;20.15
11347;BME280;5728;42.722;23.258;2022-10-18T12:08:54;95773.03;;;25.55;20.54
11347;BME280;5728;42.722;23.258;2022-10-18T12:11:27;95769.88;;;25.78;20.75
11347;BME280;5728;42.722;23.258;2022-10-18T12:14:00;95766.13;;;26.97;20.04
11347;BME280;5728;42.722;23.258;2022-10-18T12:16:31;95755.81;;;27.99;20.57
11347;BME280;5728;42.722;23.258;2022-10-18T12:19:01;95758.88;;;27.93;19.11
11347;BME280;5728;42.722;23.258;2022-10-18T12:21:31;95747.31;;;27.80;19.14
11347;BME280;5728;42.722;23.258;2022-10-18T12:24:01;95744.44;;;27.83;18.26
11347;BME280;5728;42.722;23.258;2022-10-18T12:26:30;95745.19;;;27.46;19.32
11347;BME280;5728;42.722;23.258;2022-10-18T12:29:10;95745.25;;;27.58;19.20
11347;BME280;5728;42.722;23.258;2022-10-18T12:31:41;95745.44;;;27.29;18.35
11347;BME280;5728;42.722;23.258;2022-10-18T12:34:23;95744.44;;;27.83;18.11
11347;BME280;5728;42.722;23.258;2022-10-18T12:37:03;95737.06;;;28.13;17.29
11347;BME280;5728;42.722;23.258;2022-10-18T12:39:38;95734.81;;;27.68;17.87
11347;BME280;5728;42.722;23.258;2022-10-18T12:42:16;95730.78;;;27.75;18.05
11347;BME280;5728;42.722;23.258;2022-10-18T12:44:47;95729.06;;;26.51;18.49
11347;BME280;5728;42.722;23.258;2022-10-18T12:47:21;95728.91;;;27.23;18.03
11347;BME280;5728;42.722;23.258;2022-10-18T12:49:55;95721.19;;;27.85;17.51
11347;BME280;5728;42.722;23.258;2022-10-18T12:52:24;95714.31;;;28.08;17.77
11347;BME280;5728;42.722;23.258;2022-10-18T12:55:29;95707.19;;;28.08;17.70
11347;BME280;5728;42.722;23.258;2022-10-18T12:58:24;95709.84;;;27.56;17.96
11347;BME280;5728;42.722;23.258;2022-10-18T13:01:03;95700.75;;;27.98;17.38
11347;BME280;5728;42.722;23.258;2022-10-18T13:06:23;95709.31;;;28.28;17.58
11347;BME280;5728;42.722;23.258;2022-10-18T13:09:16;95703.13;;;28.15;17.36
11347;BME280;5728;42.722;23.258;2022-10-18T13:11:43;95700.41;;;27.90;16.60
11347;BME280;5728;42.722;23.258;2022-10-18T13:14:28;95695.56;;;28.22;16.25
11347;BME280;5728;42.722;23.258;2022-10-18T13:17:06;95686.91;;;28.06;16.82
11347;BME280;5728;42.722;23.258;2022-10-18T13:19:44;95688.97;;;27.63;16.12
11347;BME280;5728;42.722;23.258;2022-10-18T13:22:30;95684.91;;;27.70;15.70
11347;BME280;5728;42.722;23.258;2022-10-18T13:25:03;95675.59;;;28.02;17.31
11347;BME280;5728;42.722;23.258;2022-10-18T13:27:37;95682.78;;;28.14;15.74
11347;BME280;5728;42.722;23.258;2022-10-18T13:30:24;95684.06;;;27.82;15.46